Time;durP1;ratioP1;P1;durP2;ratioP2;P2;SDS_P1;SDS_P2;PMS_P1;PMS_P2;Temp;Humidity;BMP_temperature;BMP_pressure;BME280_temperature;BME280_humidity;BME280_pressure;Samples;Min_cycle;Max_cycle;Signal;HPM_P1;HPM_P2
2023/08/26 00:01:50;;;;;;;4.03;2.30;;;20.30;99.90;;;;;;4929787;29;20194;-69
2023/08/26 00:04:15;;;;;;;2.50;2.30;;;20.40;99.90;;;;;;4936564;29;20774;-70
2023/08/26 00:06:41;;;;;;;5.20;2.53;;;20.50;99.90;;;;;;4934530;29;20207;-70
2023/08/26 00:09:06;;;;;;;2.50;2.23;;;20.50;99.90;;;;;;4930140;29;20178;-70
2023/08/26 00:11:32;;;;;;;2.60;2.20;;;20.50;99.90;;;;;;4937625;29;20178;-70
2023/08/26 00:13:58;;;;;;;2.77;2.50;;;20.50;99.90;;;;;;4937210;29;20621;-71
2023/08/26 00:16:24;;;;;;;4.90;2.50;;;20.50;99.90;;;;;;4937650;29;20303;-70
2023/08/26 00:18:50;;;;;;;2.73;2.30;;;20.50;99.90;;;;;;4937305;29;20181;-70
2023/08/26 00:21:20;;;;;;;2.60;2.40;;;20.50;99.90;;;;;;4937717;29;20478;-70
2023/08/26 00:23:46;;;;;;;2.87;2.30;;;20.50;99.90;;;;;;4935449;29;20196;-69
2023/08/26 00:26:12;;;;;;;2.50;2.30;;;20.50;99.90;;;;;;4937574;29;20416;-72
2023/08/26 00:28:37;;;;;;;2.70;2.43;;;20.50;99.90;;;;;;4937549;29;20190;-69
2023/08/26 00:31:03;;;;;;;3.10;2.63;;;20.50;99.90;;;;;;4950340;28;20186;-71
2023/08/26 00:33:29;;;;;;;3.30;2.00;;;20.40;99.90;;;;;;4938857;29;20182;-70
2023/08/26 00:35:55;;;;;;;2.43;2.23;;;20.30;99.90;;;;;;4956472;28;20233;-70
2023/08/26 00:38:21;;;;;;;3.10;2.80;;;20.40;99.90;;;;;;4953851;29;20425;-70
2023/08/26 00:40:47;;;;;;;2.60;2.40;;;20.40;99.90;;;;;;4937431;29;20402;-70
2023/08/26 00:43:13;;;;;;;2.80;2.60;;;20.40;99.90;;;;;;4937366;29;20247;-69
2023/08/26 00:45:42;;;;;;;2.43;2.23;;;20.40;99.90;;;;;;4936972;29;20188;-69
2023/08/26 00:48:11;;;;;;;2.33;2.13;;;20.40;99.90;;;;;;4936916;29;20200;-70
2023/08/26 00:50:41;;;;;;;3.00;2.77;;;20.40;99.90;;;;;;4936843;29;20501;-70
2023/08/26 00:53:08;;;;;;;2.77;2.20;;;20.50;99.90;;;;;;4936705;29;20415;-70
2023/08/26 00:55:36;;;;;;;2.20;1.90;;;20.40;99.90;;;;;;4937000;29;20790;-71
2023/08/26 00:58:02;;;;;;;3.97;1.33;;;20.50;99.90;;;;;;4936621;29;20952;-70
2023/08/26 01:00:29;;;;;;;3.40;1.70;;;20.50;99.90;;;;;;4936703;29;20433;-71
2023/08/26 01:02:54;;;;;;;5.33;1.97;;;20.50;99.90;;;;;;4936415;29;20507;-69
2023/08/26 01:05:20;;;;;;;2.57;2.10;;;20.50;99.90;;;;;;4936519;29;20864;-70
2023/08/26 01:07:46;;;;;;;2.70;1.97;;;20.50;99.90;;;;;;4932295;29;20204;-69
2023/08/26 01:10:12;;;;;;;4.27;2.40;;;20.60;99.90;;;;;;4933372;29;20176;-69
2023/08/26 01:12:55;;;;;;;3.20;2.90;;;20.60;99.90;;;;;;4936698;28;20440;-70
2023/08/26 01:15:21;;;;;;;3.10;2.80;;;20.60;99.90;;;;;;4935565;29;20223;-69
2023/08/26 01:17:47;;;;;;;2.30;2.10;;;20.50;99.90;;;;;;4936317;29;20420;-69
2023/08/26 01:20:14;;;;;;;3.07;2.77;;;20.50;99.90;;;;;;4936063;29;20411;-70
2023/08/26 01:22:41;;;;;;;3.30;2.53;;;20.40;99.90;;;;;;4936164;29;21034;-70
2023/08/26 01:25:08;;;;;;;2.30;2.00;;;20.40;99.90;;;;;;4936245;29;20431;-69
2023/08/26 01:27:33;;;;;;;3.63;2.30;;;20.40;99.90;;;;;;4936182;29;20420;-70
2023/08/26 01:30:00;;;;;;;2.97;2.30;;;20.40;99.90;;;;;;4938897;29;20422;-70
2023/08/26 01:32:35;;;;;;;2.20;1.87;;;20.40;99.90;;;;;;4936015;29;20196;-71
2023/08/26 01:35:05;;;;;;;2.93;2.73;;;20.40;99.90;;;;;;4935793;29;20462;-70
2023/08/26 01:37:32;;;;;;;2.47;2.23;;;20.30;99.90;;;;;;4936064;29;20412;-70
2023/08/26 01:39:59;;;;;;;3.00;2.33;;;20.30;99.90;;;;;;4916361;29;20417;-70
2023/08/26 01:42:26;;;;;;;2.50;2.30;;;20.30;99.90;;;;;;4935564;29;20411;-69
2023/08/26 01:44:52;;;;;;;9.23;2.37;;;20.30;99.90;;;;;;4932558;29;20468;-70
2023/08/26 01:47:18;;;;;;;1.83;1.73;;;20.30;99.90;;;;;;4934730;29;20448;-70
2023/08/26 01:49:46;;;;;;;3.43;2.10;;;20.30;99.90;;;;;;4916463;29;20590;-70
2023/08/26 01:52:12;;;;;;;2.50;2.30;;;20.30;99.90;;;;;;4936318;29;20444;-70
2023/08/26 01:54:38;;;;;;;3.00;2.47;;;20.30;99.90;;;;;;4936541;29;20464;-70
2023/08/26 01:57:04;;;;;;;3.60;2.67;;;20.30;99.90;;;;;;4927448;29;20443;-70
2023/08/26 01:59:29;;;;;;;2.30;2.17;;;20.20;99.90;;;;;;4946784;29;20237;-69
2023/08/26 02:01:55;;;;;;;4.10;2.00;;;20.30;99.90;;;;;;4945540;29;20435;-70
2023/08/26 02:04:21;;;;;;;3.17;2.33;;;20.20;99.90;;;;;;4940348;29;20224;-71
2023/08/26 02:06:47;;;;;;;2.73;2.20;;;20.20;99.90;;;;;;4935796;29;20227;-69
2023/08/26 02:09:12;;;;;;;2.47;2.27;;;20.10;99.90;;;;;;4934668;29;20477;-70
2023/08/26 02:11:38;;;;;;;2.27;2.07;;;20.10;99.90;;;;;;4934603;29;20224;-70
2023/08/26 02:14:03;;;;;;;3.10;2.80;;;20.20;99.90;;;;;;4934371;29;20211;-70
2023/08/26 02:16:29;;;;;;;2.93;2.20;;;20.10;99.90;;;;;;4934101;29;20189;-70
2023/08/26 02:18:55;;;;;;;3.90;2.30;;;20.10;99.90;;;;;;4933273;29;20188;-69
2023/08/26 02:21:20;;;;;;;4.53;2.60;;;20.00;99.90;;;;;;4932866;29;20198;-71
2023/08/26 02:23:46;;;;;;;4.60;2.30;;;20.00;99.90;;;;;;4933213;29;20215;-70
2023/08/26 02:26:12;;;;;;;2.40;2.20;;;19.90;99.90;;;;;;4934274;29;20167;-69
2023/08/26 02:28:37;;;;;;;2.17;1.97;;;19.90;99.90;;;;;;4934780;29;20182;-69
2023/08/26 02:31:03;;;;;;;3.97;2.40;;;19.90;99.90;;;;;;4934926;29;20419;-70
2023/08/26 02:33:30;;;;;;;2.87;2.03;;;19.90;99.90;;;;;;4935000;29;20183;-69
2023/08/26 02:35:55;;;;;;;3.23;2.03;;;19.80;99.90;;;;;;4934711;29;20474;-69
2023/08/26 02:38:21;;;;;;;3.83;2.40;;;19.80;99.90;;;;;;4937608;29;20963;-71
2023/08/26 02:40:54;;;;;;;7.93;2.87;;;19.80;99.90;;;;;;4934765;29;20189;-72
2023/08/26 02:43:20;;;;;;;5.43;2.80;;;19.70;99.90;;;;;;4934410;29;20285;-72
2023/08/26 02:45:46;;;;;;;2.83;2.43;;;19.70;99.90;;;;;;4935801;28;20442;-70
2023/08/26 02:48:11;;;;;;;3.00;2.30;;;19.80;99.90;;;;;;4934786;29;20424;-69
2023/08/26 02:50:38;;;;;;;2.50;2.30;;;19.70;99.90;;;;;;4934522;29;20549;-71
2023/08/26 02:53:04;;;;;;;2.90;2.50;;;19.80;99.90;;;;;;4933749;29;20312;-70
2023/08/26 02:55:29;;;;;;;2.33;2.13;;;19.70;99.90;;;;;;4935351;29;20841;-70
2023/08/26 02:57:55;;;;;;;3.33;2.50;;;19.70;99.90;;;;;;4934551;29;20410;-70
2023/08/26 03:00:20;;;;;;;3.63;2.67;;;19.70;99.90;;;;;;4934549;29;20183;-70
2023/08/26 03:02:46;;;;;;;3.23;2.50;;;19.80;99.90;;;;;;4934341;29;20209;-70
2023/08/26 03:05:12;;;;;;;6.50;2.90;;;19.80;99.90;;;;;;4920168;29;20207;-69
2023/08/26 03:07:37;;;;;;;5.03;2.63;;;19.70;99.90;;;;;;4934242;29;20194;-70
2023/08/26 03:10:03;;;;;;;3.00;2.30;;;19.80;99.90;;;;;;4934315;29;20189;-70
2023/08/26 03:12:29;;;;;;;3.93;2.87;;;19.80;99.90;;;;;;4937281;29;20184;-70
2023/08/26 03:14:54;;;;;;;5.60;2.53;;;19.80;99.90;;;;;;4934563;29;20195;-70
2023/08/26 03:17:20;;;;;;;6.10;3.00;;;19.80;99.90;;;;;;4934680;29;20179;-70
2023/08/26 03:19:46;;;;;;;3.43;2.47;;;19.80;99.90;;;;;;4917000;29;20167;-70
2023/08/26 03:22:12;;;;;;;3.83;3.23;;;19.80;99.90;;;;;;4934288;29;20203;-69
2023/08/26 03:24:38;;;;;;;3.63;2.77;;;19.80;99.90;;;;;;4934027;29;20618;-70
2023/08/26 03:27:04;;;;;;;2.53;2.20;;;19.80;99.90;;;;;;4934411;29;20175;-68
2023/08/26 03:29:29;;;;;;;4.07;3.50;;;19.80;99.90;;;;;;4934527;29;20786;-69
2023/08/26 03:31:55;;;;;;;3.13;2.57;;;19.80;99.90;;;;;;4934291;29;20414;-70
2023/08/26 03:34:21;;;;;;;3.20;2.57;;;19.80;99.90;;;;;;4934206;29;20289;-71
2023/08/26 03:36:47;;;;;;;5.57;2.50;;;19.70;99.90;;;;;;4934182;29;20224;-71
2023/08/26 03:39:12;;;;;;;2.93;2.73;;;19.70;99.90;;;;;;4938013;29;20601;-71
2023/08/26 03:41:38;;;;;;;3.13;2.80;;;19.70;99.90;;;;;;4938003;29;20917;-71
2023/08/26 03:44:04;;;;;;;4.10;3.30;;;19.70;99.90;;;;;;4937733;29;20638;-71
2023/08/26 03:46:30;;;;;;;2.60;2.37;;;19.70;99.90;;;;;;4936344;29;20446;-69
2023/08/26 03:48:56;;;;;;;2.70;2.50;;;19.70;99.90;;;;;;4929920;29;20194;-69
2023/08/26 03:51:21;;;;;;;3.30;2.87;;;19.60;99.90;;;;;;4937555;29;20188;-70
2023/08/26 03:53:47;;;;;;;3.40;3.10;;;19.60;99.90;;;;;;4938091;29;20275;-71
2023/08/26 03:56:13;;;;;;;3.00;2.60;;;19.50;99.90;;;;;;4937850;29;20268;-70
2023/08/26 03:58:39;;;;;;;2.60;2.40;;;19.50;99.90;;;;;;4937083;29;21380;-71
2023/08/26 04:01:05;;;;;;;3.07;2.77;;;19.40;99.90;;;;;;4936812;29;20936;-70
2023/08/26 04:03:31;;;;;;;4.67;3.10;;;19.40;99.90;;;;;;4936669;29;20488;-69
2023/08/26 04:06:01;;;;;;;3.37;3.07;;;19.40;99.90;;;;;;4937191;29;20265;-69
2023/08/26 04:08:32;;;;;;;5.60;3.13;;;19.40;99.90;;;;;;4920308;29;20416;-70
2023/08/26 04:10:59;;;;;;;3.60;3.30;;;19.40;99.90;;;;;;4937523;29;20405;-70
2023/08/26 04:13:26;;;;;;;4.70;3.23;;;19.40;99.90;;;;;;4937358;29;20449;-70
2023/08/26 04:16:02;;;;;;;4.73;2.77;;;19.30;99.90;;;;;;4937332;29;20493;-70
2023/08/26 04:18:28;;;;;;;5.10;2.73;;;19.30;99.90;;;;;;4937344;29;20479;-70
2023/08/26 04:20:54;;;;;;;3.73;3.00;;;19.40;99.90;;;;;;4940030;29;20419;-70
2023/08/26 04:23:19;;;;;;;3.40;3.10;;;19.40;99.90;;;;;;4937415;29;20598;-70
2023/08/26 04:25:45;;;;;;;5.23;2.93;;;19.30;99.90;;;;;;4937312;29;20190;-70
2023/08/26 04:28:17;;;;;;;3.70;3.27;;;19.30;99.90;;;;;;4937092;29;20173;-70
2023/08/26 04:30:44;;;;;;;3.27;2.50;;;19.30;99.90;;;;;;4937221;29;20169;-70
2023/08/26 04:33:10;;;;;;;3.80;3.40;;;19.30;99.90;;;;;;4937497;29;20900;-70
2023/08/26 04:35:36;;;;;;;4.07;3.27;;;19.40;99.90;;;;;;4936072;29;20457;-70
2023/08/26 04:38:03;;;;;;;3.13;2.83;;;19.40;99.90;;;;;;4937469;29;20188;-70
2023/08/26 04:40:28;;;;;;;4.53;3.47;;;19.30;99.90;;;;;;4937031;29;20784;-70
2023/08/26 04:42:55;;;;;;;4.97;3.23;;;19.30;99.90;;;;;;4937073;29;20548;-70
2023/08/26 04:45:22;;;;;;;5.03;3.23;;;19.30;99.90;;;;;;4936814;29;20584;-70
2023/08/26 04:47:48;;;;;;;3.93;3.53;;;19.40;99.90;;;;;;4937088;29;20423;-70
2023/08/26 04:50:14;;;;;;;5.17;3.40;;;19.30;99.90;;;;;;4936130;29;20443;-69
2023/08/26 04:52:41;;;;;;;5.07;3.00;;;19.30;99.90;;;;;;4937646;29;20413;-69
2023/08/26 04:55:10;;;;;;;3.50;3.20;;;19.30;99.90;;;;;;4952075;29;20495;-70
2023/08/26 04:57:36;;;;;;;4.43;3.97;;;19.40;99.90;;;;;;4952282;29;20410;-69
2023/08/26 05:00:08;;;;;;;5.47;4.90;;;19.40;99.90;;;;;;4952776;29;20433;-70
2023/08/26 05:02:34;;;;;;;6.53;3.03;;;19.40;99.90;;;;;;4945628;29;20531;-70
2023/08/26 05:04:59;;;;;;;4.23;3.83;;;19.40;99.90;;;;;;4935778;29;20550;-70
2023/08/26 05:07:25;;;;;;;5.43;3.70;;;19.50;99.90;;;;;;4935599;29;20187;-69
2023/08/26 05:09:51;;;;;;;4.10;3.07;;;19.50;99.90;;;;;;4936810;29;20169;-69
2023/08/26 05:12:16;;;;;;;3.47;3.20;;;19.50;99.90;;;;;;4936458;29;20725;-69
2023/08/26 05:14:42;;;;;;;3.53;3.23;;;19.50;99.90;;;;;;4935331;29;20195;-70
2023/08/26 05:17:07;;;;;;;3.83;3.43;;;19.50;99.90;;;;;;4935024;29;20188;-69
2023/08/26 05:19:33;;;;;;;4.60;3.33;;;19.50;99.90;;;;;;4935583;29;20177;-69
2023/08/26 05:21:59;;;;;;;5.73;3.20;;;19.50;99.90;;;;;;4935403;29;20704;-70
2023/08/26 05:24:25;;;;;;;3.40;2.97;;;19.60;99.90;;;;;;4935759;29;20219;-69
2023/08/26 05:26:52;;;;;;;8.83;4.10;;;19.70;99.90;;;;;;4935427;29;20245;-69
2023/08/26 05:29:18;;;;;;;5.40;3.60;;;19.70;99.90;;;;;;4935089;29;20436;-71
2023/08/26 05:31:45;;;;;;;4.97;3.50;;;19.70;99.90;;;;;;4936127;29;20962;-69
2023/08/26 05:34:11;;;;;;;3.70;3.40;;;19.70;99.90;;;;;;4936157;29;20235;-70
2023/08/26 05:36:36;;;;;;;4.40;3.20;;;19.80;99.90;;;;;;4936414;29;20461;-70
2023/08/26 05:39:02;;;;;;;4.80;4.10;;;19.80;99.90;;;;;;4936017;29;20669;-70
2023/08/26 05:41:27;;;;;;;4.43;3.40;;;19.90;99.90;;;;;;4936176;29;20210;-70
2023/08/26 05:43:54;;;;;;;3.27;2.97;;;19.90;99.90;;;;;;4935961;29;20762;-70
2023/08/26 05:46:19;;;;;;;5.70;4.07;;;20.00;99.90;;;;;;4931009;29;20180;-70
2023/08/26 05:48:45;;;;;;;3.60;3.30;;;20.00;99.90;;;;;;4935119;29;20451;-70
2023/08/26 05:51:10;;;;;;;5.53;3.70;;;20.00;99.90;;;;;;4934578;29;20275;-69
2023/08/26 05:53:36;;;;;;;4.70;3.53;;;20.00;99.90;;;;;;4935575;29;20483;-69
2023/08/26 05:56:02;;;;;;;6.47;3.90;;;20.00;99.90;;;;;;4944615;29;20185;-70
2023/08/26 05:58:27;;;;;;;4.83;3.67;;;20.20;99.90;;;;;;4949316;29;20264;-70
2023/08/26 06:00:56;;;;;;;5.17;3.70;;;20.20;99.90;;;;;;4934547;29;20238;-70
2023/08/26 06:03:22;;;;;;;4.67;3.27;;;20.30;99.90;;;;;;4933962;29;20736;-70
2023/08/26 06:05:47;;;;;;;4.10;3.57;;;20.40;99.90;;;;;;4934383;29;20515;-69
2023/08/26 06:08:15;;;;;;;6.20;4.47;;;20.50;99.90;;;;;;4934929;29;20275;-69
2023/08/26 06:10:40;;;;;;;5.30;4.80;;;20.40;99.90;;;;;;4935496;29;20843;-69
2023/08/26 06:13:06;;;;;;;3.23;3.03;;;20.40;99.90;;;;;;4934738;29;20235;-69
2023/08/26 06:15:31;;;;;;;5.23;3.80;;;20.50;99.90;;;;;;4929816;29;20247;-70
2023/08/26 06:18:00;;;;;;;4.90;3.87;;;20.60;99.90;;;;;;4931657;29;20494;-70
2023/08/26 06:20:26;;;;;;;5.80;4.47;;;20.50;99.90;;;;;;4949557;28;20267;-70
2023/08/26 06:22:52;;;;;;;6.50;3.87;;;20.40;99.90;;;;;;4936636;29;20464;-69
2023/08/26 06:25:18;;;;;;;5.30;4.13;;;20.40;99.90;;;;;;4935161;29;20432;-68
2023/08/26 06:27:44;;;;;;;4.53;3.70;;;20.40;99.90;;;;;;4935667;29;20964;-70
2023/08/26 06:30:10;;;;;;;4.07;3.77;;;20.40;99.90;;;;;;4934433;29;20189;-70
2023/08/26 06:32:35;;;;;;;4.53;4.13;;;20.40;99.90;;;;;;4931967;29;20184;-71
2023/08/26 06:35:01;;;;;;;5.90;4.67;;;20.40;99.90;;;;;;4937001;29;20466;-70
2023/08/26 06:37:27;;;;;;;8.43;5.47;;;20.50;99.90;;;;;;4939423;29;20188;-71
2023/08/26 06:39:52;;;;;;;6.10;5.50;;;20.60;99.90;;;;;;4954490;29;20177;-74
2023/08/26 06:42:18;;;;;;;7.80;4.50;;;20.40;99.90;;;;;;4954219;28;20167;-69
2023/08/26 06:44:43;;;;;;;5.77;3.87;;;20.60;99.90;;;;;;4954686;28;20707;-71
2023/08/26 06:47:10;;;;;;;4.10;3.80;;;20.60;99.90;;;;;;4955495;28;20749;-77
2023/08/26 06:49:36;;;;;;;6.23;4.77;;;20.60;99.90;;;;;;4953000;29;20268;-69
2023/08/26 06:52:02;;;;;;;5.80;3.90;;;20.80;99.90;;;;;;4951955;29;20462;-69
2023/08/26 06:54:28;;;;;;;5.33;4.80;;;20.70;99.90;;;;;;4934417;29;20455;-69
2023/08/26 06:56:54;;;;;;;5.50;4.53;;;20.80;99.90;;;;;;4934804;29;20917;-69
2023/08/26 06:59:19;;;;;;;5.07;4.20;;;20.80;99.90;;;;;;4917558;29;20176;-68
2023/08/26 07:01:45;;;;;;;6.23;3.80;;;20.80;99.90;;;;;;4917321;29;20639;-68
2023/08/26 07:04:11;;;;;;;5.03;4.50;;;20.80;99.90;;;;;;4934446;29;20296;-69
2023/08/26 07:06:37;;;;;;;6.07;5.33;;;20.80;99.90;;;;;;4934594;29;20178;-69
2023/08/26 07:09:04;;;;;;;5.60;5.10;;;20.70;99.90;;;;;;4934678;29;20424;-69
2023/08/26 07:11:30;;;;;;;3.80;3.50;;;20.80;99.90;;;;;;4933831;29;20423;-69
2023/08/26 07:13:57;;;;;;;6.57;4.63;;;20.90;99.90;;;;;;4934475;29;20860;-70
2023/08/26 07:16:24;;;;;;;5.03;4.53;;;20.80;99.90;;;;;;4934522;29;20429;-69
2023/08/26 07:18:50;;;;;;;5.37;4.57;;;20.80;99.90;;;;;;4934205;29;20412;-70
2023/08/26 07:21:16;;;;;;;4.87;4.47;;;20.90;99.90;;;;;;4933160;29;20447;-68
2023/08/26 07:23:42;;;;;;;7.80;5.47;;;20.90;99.90;;;;;;4933575;29;20668;-68
2023/08/26 07:26:07;;;;;;;6.60;5.50;;;20.90;99.90;;;;;;4934694;29;20181;-69
2023/08/26 07:28:33;;;;;;;6.20;5.17;;;21.00;99.90;;;;;;4933257;29;20193;-69
2023/08/26 07:31:03;;;;;;;6.87;5.60;;;21.10;99.90;;;;;;4933805;29;20537;-70
2023/08/26 07:33:29;;;;;;;6.10;4.97;;;21.30;99.90;;;;;;4933320;29;20280;-70
2023/08/26 07:36:21;;;;;;;5.00;4.60;;;21.30;99.90;;;;;;4929823;29;20476;-68
2023/08/26 07:38:47;;;;;;;6.07;5.50;;;21.40;99.90;;;;;;4913238;29;20441;-68
2023/08/26 07:41:13;;;;;;;5.60;4.50;;;21.40;99.90;;;;;;4926627;29;20424;-69
2023/08/26 07:43:38;;;;;;;5.93;4.77;;;21.30;99.90;;;;;;4937445;29;20456;-69
2023/08/26 07:46:04;;;;;;;7.30;5.10;;;21.30;99.90;;;;;;4933034;29;20172;-69
2023/08/26 07:48:30;;;;;;;6.00;5.40;;;21.30;99.90;;;;;;4934276;29;20581;-70
2023/08/26 07:50:55;;;;;;;6.37;5.33;;;21.30;99.90;;;;;;4934491;29;20605;-69
2023/08/26 07:53:21;;;;;;;5.67;4.63;;;21.20;99.90;;;;;;4934859;29;20422;-69
2023/08/26 07:55:47;;;;;;;5.93;5.17;;;21.30;99.90;;;;;;4935188;29;20199;-68
2023/08/26 07:58:12;;;;;;;6.70;6.00;;;21.30;99.90;;;;;;4918689;29;20182;-70
2023/08/26 08:00:38;;;;;;;5.70;5.00;;;21.30;99.90;;;;;;4937436;29;20661;-69
2023/08/26 08:03:04;;;;;;;5.63;4.70;;;21.30;99.90;;;;;;4933808;29;20208;-69
2023/08/26 08:05:29;;;;;;;5.17;4.77;;;21.60;99.90;;;;;;4933875;29;20206;-72
2023/08/26 08:07:55;;;;;;;6.93;5.77;;;21.70;99.90;;;;;;4934129;29;20187;-72
2023/08/26 08:10:20;;;;;;;4.80;4.40;;;21.50;99.90;;;;;;4934294;29;20451;-75
2023/08/26 08:12:46;;;;;;;6.60;6.00;;;21.60;99.90;;;;;;4934481;29;20179;-71
2023/08/26 08:15:12;;;;;;;5.30;4.80;;;21.50;99.90;;;;;;4934036;29;20202;-72
2023/08/26 08:17:38;;;;;;;6.53;5.10;;;21.60;99.90;;;;;;4933505;29;20183;-71
2023/08/26 08:20:05;;;;;;;8.33;6.30;;;21.70;99.90;;;;;;4933679;29;20318;-70
2023/08/26 08:22:48;;;;;;;17.93;10.10;;;21.70;99.90;;;;;;4934465;29;20405;-70
2023/08/26 08:25:14;;;;;;;14.60;8.73;;;21.70;99.90;;;;;;4920220;29;20473;-71
2023/08/26 08:27:40;;;;;;;10.23;6.20;;;21.60;99.90;;;;;;4937514;29;20509;-74
2023/08/26 08:30:06;;;;;;;7.60;6.90;;;21.70;99.90;;;;;;4936999;29;20649;-69
2023/08/26 08:32:33;;;;;;;7.83;6.27;;;21.90;99.90;;;;;;4937268;29;20414;-70
2023/08/26 08:34:59;;;;;;;6.43;5.83;;;21.70;99.90;;;;;;4936995;29;20473;-71
2023/08/26 08:37:25;;;;;;;7.30;6.60;;;21.50;99.90;;;;;;4937099;29;20421;-69
2023/08/26 08:39:50;;;;;;;8.83;6.07;;;21.50;99.90;;;;;;4936922;29;20425;-70
2023/08/26 08:42:17;;;;;;;7.00;6.40;;;21.60;99.90;;;;;;4936165;29;20560;-68
2023/08/26 08:44:46;;;;;;;6.57;5.73;;;21.60;99.90;;;;;;4936650;29;20690;-71
2023/08/26 08:47:13;;;;;;;7.77;6.07;;;21.60;99.90;;;;;;4937117;29;20924;-70
2023/08/26 08:49:41;;;;;;;8.90;6.20;;;21.80;99.90;;;;;;4926801;29;20935;-69
2023/08/26 08:52:07;;;;;;;8.27;6.30;;;21.80;99.90;;;;;;4936161;29;20444;-73
2023/08/26 08:54:34;;;;;;;6.10;5.50;;;22.10;99.90;;;;;;4936749;29;20430;-69
2023/08/26 08:57:05;;;;;;;6.30;5.70;;;22.20;99.90;;;;;;4936976;29;20411;-69
2023/08/26 08:59:36;;;;;;;5.33;4.80;;;22.30;99.90;;;;;;4936641;29;20426;-69
2023/08/26 09:02:03;;;;;;;5.67;5.20;;;22.00;99.90;;;;;;4926640;29;20519;-69
2023/08/26 09:04:29;;;;;;;5.97;5.20;;;22.10;99.90;;;;;;4934474;29;20470;-70
2023/08/26 09:06:55;;;;;;;5.20;4.70;;;22.20;99.90;;;;;;4936805;29;20414;-69
2023/08/26 09:09:21;;;;;;;5.60;4.93;;;22.30;99.90;;;;;;4936912;29;20560;-69
2023/08/26 09:11:48;;;;;;;6.33;4.83;;;22.30;99.90;;;;;;4936637;29;20185;-72
2023/08/26 09:14:14;;;;;;;5.10;4.20;;;22.20;99.90;;;;;;4936796;29;20469;-73
2023/08/26 09:16:42;;;;;;;7.13;4.23;;;22.10;99.90;;;;;;4936334;29;20859;-73
2023/08/26 09:19:10;;;;;;;4.90;4.50;;;22.60;99.90;;;;;;4935578;29;20189;-76
2023/08/26 09:21:45;;;;;;;6.83;4.90;;;22.70;99.90;;;;;;4935898;29;20977;-71
2023/08/26 09:24:16;;;;;;;5.30;4.23;;;23.10;99.90;;;;;;4936482;29;20529;-70
2023/08/26 09:26:43;;;;;;;5.50;4.73;;;23.40;99.90;;;;;;4935392;29;20435;-70
2023/08/26 09:29:18;;;;;;;4.70;4.30;;;23.70;99.90;;;;;;4936214;29;20976;-70
2023/08/26 09:31:52;;;;;;;4.03;3.63;;;24.00;99.90;;;;;;4935686;29;20456;-71
2023/08/26 09:34:28;;;;;;;4.73;4.23;;;23.80;99.90;;;;;;4936311;29;20465;-70
2023/08/26 09:36:54;;;;;;;3.30;3.00;;;23.20;99.90;;;;;;4941750;29;20448;-69
2023/08/26 09:39:21;;;;;;;5.47;4.93;;;23.20;99.90;;;;;;4936212;29;20505;-70
2023/08/26 09:41:47;;;;;;;4.93;4.47;;;23.20;99.90;;;;;;4934335;29;20441;-71
2023/08/26 09:44:18;;;;;;;4.70;4.13;;;23.40;99.90;;;;;;4918060;29;20481;-72
2023/08/26 09:46:44;;;;;;;8.33;7.13;;;23.80;99.90;;;;;;4936086;29;20965;-71
2023/08/26 09:49:13;;;;;;;6.97;6.03;;;24.20;99.90;;;;;;4935904;29;20424;-70
2023/08/26 09:51:48;;;;;;;6.40;4.73;;;24.00;99.90;;;;;;4935004;29;20445;-72
2023/08/26 09:54:18;;;;;;;6.27;5.77;;;24.20;99.90;;;;;;4934887;29;20469;-72
2023/08/26 09:56:45;;;;;;;7.27;6.57;;;24.50;99.90;;;;;;4926308;29;20580;-71
2023/08/26 09:59:11;;;;;;;7.20;5.53;;;24.50;99.90;;;;;;4934373;29;20945;-71
2023/08/26 10:01:39;;;;;;;9.70;6.60;;;24.20;99.90;;;;;;4935149;29;20421;-72
2023/08/26 10:04:09;;;;;;;7.77;5.60;;;24.00;99.90;;;;;;4934698;29;20473;-72
2023/08/26 10:06:54;;;;;;;8.03;5.33;;;24.10;99.90;;;;;;4934743;29;20446;-70
2023/08/26 10:09:41;;;;;;;7.53;6.40;;;23.70;99.90;;;;;;4921404;29;20816;-72
2023/08/26 10:12:12;;;;;;;6.03;5.30;;;23.90;99.90;;;;;;4934790;29;20446;-72
2023/08/26 10:14:42;;;;;;;6.97;6.27;;;23.90;99.90;;;;;;4935524;29;20436;-71
2023/08/26 10:17:13;;;;;;;7.37;6.63;;;24.60;99.90;;;;;;4931029;29;20495;-71
2023/08/26 10:19:40;;;;;;;7.40;6.43;;;24.80;99.90;;;;;;4933059;29;20438;-73
2023/08/26 10:22:09;;;;;;;8.03;7.00;;;24.50;99.90;;;;;;4935743;29;20420;-75
2023/08/26 10:24:36;;;;;;;7.57;6.30;;;24.60;99.90;;;;;;4935007;29;20859;-71
2023/08/26 10:27:03;;;;;;;7.40;6.70;;;24.70;99.90;;;;;;4934314;29;20442;-72
2023/08/26 10:29:30;;;;;;;7.73;6.93;;;24.90;99.90;;;;;;4934615;29;20528;-74
2023/08/26 10:31:55;;;;;;;7.57;6.87;;;25.20;99.90;;;;;;4935138;29;20408;-70
2023/08/26 10:34:30;;;;;;;7.20;6.50;;;25.40;99.90;;;;;;4933714;29;20466;-72
2023/08/26 10:36:56;;;;;;;8.07;6.97;;;25.50;99.90;;;;;;4928961;29;20206;-71
2023/08/26 10:39:24;;;;;;;7.67;6.90;;;25.10;99.90;;;;;;4932274;29;20439;-74
2023/08/26 10:42:29;;;;;;;7.93;6.60;;;25.00;99.90;;;;;;4935051;29;20431;-71
2023/08/26 10:44:56;;;;;;;7.50;6.80;;;25.20;99.90;;;;;;4823542;29;20494;-71
2023/08/26 10:47:41;;;;;;;9.50;8.70;;;25.10;99.90;;;;;;4851299;29;20477;-71
2023/08/26 10:50:22;;;;;;;8.13;6.50;;;25.30;99.90;;;;;;4888598;29;20514;-72
2023/08/26 10:53:15;;;;;;;7.80;7.00;;;25.30;99.90;;;;;;4933705;29;20944;-72
2023/08/26 10:55:40;;;;;;;9.03;6.27;;;25.10;99.90;;;;;;4936557;29;20827;-72
2023/08/26 10:58:42;;;;;;;7.00;6.30;;;25.40;99.90;;;;;;4935804;29;20426;-71
2023/08/26 11:01:09;;;;;;;7.43;6.07;;;25.20;99.90;;;;;;4932430;29;20172;-70
2023/08/26 11:03:37;;;;;;;6.67;6.13;;;25.50;99.90;;;;;;4934493;29;20469;-71
2023/08/26 11:06:04;;;;;;;7.40;6.10;;;25.50;99.90;;;;;;4934032;29;20406;-71
2023/08/26 11:08:30;;;;;;;8.00;6.53;;;25.50;99.90;;;;;;4932171;29;20434;-73
2023/08/26 11:10:56;;;;;;;6.23;5.63;;;25.80;99.90;;;;;;4933469;29;20786;-71
2023/08/26 11:13:22;;;;;;;5.07;4.57;;;25.80;99.90;;;;;;4933789;29;20215;-72
2023/08/26 11:15:50;;;;;;;5.93;5.23;;;26.10;99.90;;;;;;4934313;29;20203;-71
2023/08/26 11:18:16;;;;;;;6.43;5.83;;;26.20;99.90;;;;;;4934250;29;20520;-69
2023/08/26 11:20:44;;;;;;;6.30;5.67;;;26.00;99.90;;;;;;4934297;29;20432;-72
2023/08/26 11:23:10;;;;;;;6.27;5.67;;;26.00;99.90;;;;;;4934562;29;20504;-71
2023/08/26 11:25:39;;;;;;;6.70;5.87;;;26.30;99.90;;;;;;4933769;29;20453;-71
2023/08/26 11:28:07;;;;;;;15.43;13.93;;;26.30;99.90;;;;;;4934652;29;20468;-72
2023/08/26 11:30:37;;;;;;;7.90;5.77;;;26.40;99.90;;;;;;4932447;29;20949;-72
2023/08/26 11:33:11;;;;;;;5.40;4.90;;;26.30;99.90;;;;;;4934514;29;21293;-72
2023/08/26 11:35:47;;;;;;;7.10;4.30;;;26.40;99.90;;;;;;4934256;29;20460;-72
2023/08/26 11:38:14;;;;;;;6.63;6.03;;;26.50;99.90;;;;;;4933285;29;20431;-72
2023/08/26 11:40:41;;;;;;;8.03;7.23;;;26.80;99.90;;;;;;4932649;29;20453;-72
2023/08/26 11:43:06;;;;;;;5.53;4.23;;;26.60;99.90;;;;;;4934141;29;20544;-72
2023/08/26 11:45:33;;;;;;;4.20;3.80;;;26.80;99.90;;;;;;4933481;29;20540;-72
2023/08/26 11:47:58;;;;;;;9.57;4.80;;;26.90;99.90;;;;;;4933878;29;20179;-72
2023/08/26 11:50:26;;;;;;;5.00;4.07;;;27.00;99.90;;;;;;4933579;29;20434;-71
2023/08/26 11:52:54;;;;;;;7.50;4.80;;;26.90;99.90;;;;;;4933536;29;20178;-71
2023/08/26 11:55:20;;;;;;;6.00;3.70;;;26.90;99.90;;;;;;4933197;29;20434;-71
2023/08/26 11:57:52;;;;;;;10.67;3.73;;;26.90;99.90;;;;;;4934565;29;20422;-71
2023/08/26 12:00:19;;;;;;;5.10;3.90;;;27.10;99.90;;;;;;4936485;29;20438;-71
2023/08/26 12:02:46;;;;;;;3.80;3.50;;;27.40;99.90;;;;;;4938043;29;20405;-70
2023/08/26 12:05:14;;;;;;;4.73;3.50;;;27.20;99.90;;;;;;4937842;29;20430;-71
2023/08/26 12:07:50;;;;;;;5.40;4.10;;;26.80;99.90;;;;;;4937084;29;20825;-72
2023/08/26 12:10:18;;;;;;;3.57;3.27;;;26.80;99.90;;;;;;4936902;29;20440;-71
2023/08/26 12:12:47;;;;;;;4.00;3.70;;;26.30;99.90;;;;;;4937152;29;20425;-71
2023/08/26 12:15:19;;;;;;;4.37;3.97;;;26.00;99.90;;;;;;4922994;29;20959;-71
2023/08/26 12:17:51;;;;;;;7.53;4.77;;;26.10;99.90;;;;;;4937438;29;20883;-71
2023/08/26 12:20:24;;;;;;;3.83;3.53;;;26.00;99.90;;;;;;4937869;29;20410;-71
2023/08/26 12:22:54;;;;;;;4.03;3.47;;;26.20;99.90;;;;;;4936346;29;20436;-72
2023/08/26 12:25:32;;;;;;;5.80;3.50;;;26.30;99.90;;;;;;4936132;29;20470;-70
2023/08/26 12:28:18;;;;;;;5.10;4.60;;;26.30;99.90;;;;;;4936107;29;20853;-72
2023/08/26 12:30:45;;;;;;;4.63;4.17;;;26.40;99.90;;;;;;4936134;29;20457;-72
2023/08/26 12:33:12;;;;;;;4.43;3.40;;;26.50;99.90;;;;;;4937138;29;20461;-73
2023/08/26 12:35:38;;;;;;;4.20;3.40;;;26.30;99.90;;;;;;4918951;29;20469;-69
2023/08/26 12:38:04;;;;;;;4.43;4.03;;;26.30;99.90;;;;;;4937252;29;20438;-70
2023/08/26 12:40:38;;;;;;;4.10;3.43;;;26.40;99.90;;;;;;4936312;29;20435;-71
2023/08/26 12:43:04;;;;;;;5.17;4.00;;;26.40;99.90;;;;;;4935238;29;20568;-72
2023/08/26 12:45:31;;;;;;;5.20;3.23;;;26.80;99.90;;;;;;4936798;29;20768;-71
2023/08/26 12:47:57;;;;;;;7.03;3.67;;;26.80;99.90;;;;;;4935766;29;20440;-72